createdAt,value
2018-05-16T00:01:00.003Z,14.13
2018-05-16T00:02:00.047Z,14.27
2018-05-16T00:03:00.107Z,14.26
2018-05-16T00:04:00.166Z,14.26
2018-05-16T00:05:00.227Z,14.20
2018-05-16T00:06:00.288Z,14.29
2018-05-16T00:07:00.348Z,14.34
2018-05-16T00:08:00.412Z,14.38
2018-05-16T00:09:00.468Z,14.46
2018-05-16T00:10:00.530Z,14.52
2018-05-16T00:11:00.590Z,14.49
2018-05-16T00:12:00.650Z,14.45
2018-05-16T00:13:00.709Z,14.53
2018-05-16T00:14:00.771Z,14.45
2018-05-16T00:15:00.831Z,14.44
2018-05-16T00:16:00.891Z,14.41
2018-05-16T00:17:00.950Z,14.42
2018-05-16T00:18:01.013Z,14.41
2018-05-16T00:19:01.073Z,14.38
2018-05-16T00:20:01.132Z,14.34
2018-05-16T00:21:01.196Z,14.38
2018-05-16T00:22:01.254Z,14.42
2018-05-16T00:23:01.314Z,14.36
2018-05-16T00:24:01.387Z,14.38
2018-05-16T00:25:01.436Z,14.29
2018-05-16T00:26:01.495Z,14.27
2018-05-16T00:27:01.555Z,14.34
2018-05-16T00:28:01.632Z,14.21
2018-05-16T00:29:01.675Z,14.27
2018-05-16T00:30:01.735Z,14.27
2018-05-16T00:31:01.803Z,14.36
2018-05-16T00:32:01.861Z,14.36
2018-05-16T00:33:01.917Z,14.30
2018-05-16T00:34:01.982Z,14.29
2018-05-16T00:35:02.039Z,14.38
2018-05-16T00:36:02.098Z,14.35
2018-05-16T00:37:02.161Z,14.34
2018-05-16T00:38:02.220Z,14.42
2018-05-16T00:39:02.280Z,14.38
2018-05-16T00:40:02.340Z,14.41
2018-05-16T00:41:02.401Z,14.46
2018-05-16T00:42:02.460Z,14.56
2018-05-16T00:43:02.521Z,14.45
2018-05-16T00:44:02.581Z,14.46
2018-05-16T00:45:02.642Z,14.56
2018-05-16T00:46:02.702Z,14.52
2018-05-16T00:47:02.762Z,14.46
2018-05-16T00:48:02.822Z,14.44
2018-05-16T00:49:02.884Z,14.42
2018-05-16T00:50:02.943Z,14.52
2018-05-16T00:51:03.004Z,14.64
2018-05-16T00:52:03.066Z,14.74
2018-05-16T00:53:03.124Z,15.00
2018-05-16T00:54:03.185Z,15.05
2018-05-16T00:55:03.246Z,15.09
2018-05-16T00:56:03.305Z,15.12
2018-05-16T00:57:03.365Z,15.03
2018-05-16T00:58:03.426Z,14.91
2018-05-16T00:59:03.488Z,14.97
2018-05-16T01:00:03.547Z,14.97
2018-05-16T01:01:03.630Z,15.07
2018-05-16T01:02:03.669Z,15.11
2018-05-16T01:03:03.728Z,15.13
2018-05-16T01:04:03.790Z,15.09
2018-05-16T01:05:03.893Z,15.13
2018-05-16T01:06:03.910Z,15.13
2018-05-16T01:07:03.975Z,15.07
2018-05-16T01:08:04.033Z,15.07
2018-05-16T01:09:04.093Z,15.20
2018-05-16T01:10:04.153Z,15.13
2018-05-16T01:11:04.214Z,15.11
2018-05-16T01:12:04.274Z,15.03
2018-05-16T01:13:04.335Z,15.05
2018-05-16T01:14:04.395Z,14.95
2018-05-16T01:15:04.457Z,15.00
2018-05-16T01:16:04.520Z,15.01
2018-05-16T01:17:04.578Z,14.93
2018-05-16T01:18:04.737Z,14.93
2018-05-16T01:19:04.698Z,15.09
2018-05-16T01:20:04.760Z,15.07
2018-05-16T01:21:04.819Z,15.04
2018-05-16T01:22:04.946Z,15.09
2018-05-16T01:23:04.941Z,15.09
2018-05-16T01:24:05.001Z,15.07
2018-05-16T01:25:05.063Z,15.09
2018-05-16T01:26:05.123Z,15.11
2018-05-16T01:27:05.185Z,15.03
2018-05-16T01:28:05.244Z,15.00
2018-05-16T01:29:05.306Z,15.11
2018-05-16T01:30:05.366Z,15.05
2018-05-16T01:31:05.430Z,15.09
2018-05-16T01:32:05.488Z,15.09
2018-05-16T01:33:05.549Z,15.07
2018-05-16T01:34:05.610Z,15.01
2018-05-16T01:35:05.674Z,15.01
2018-05-16T01:36:05.733Z,14.93
2018-05-16T01:37:05.795Z,14.93
2018-05-16T01:38:05.853Z,14.79
2018-05-16T01:39:05.914Z,14.75
2018-05-16T01:40:06.171Z,14.66
2018-05-16T01:41:06.038Z,14.56
2018-05-16T01:42:06.100Z,14.66
2018-05-16T01:43:06.158Z,14.69
2018-05-16T01:44:06.219Z,14.52
2018-05-16T01:45:06.278Z,14.59
2018-05-16T01:46:06.342Z,14.53
2018-05-16T01:47:06.402Z,14.53
2018-05-16T01:48:06.462Z,14.49
2018-05-16T01:49:06.522Z,14.46
2018-05-16T01:50:06.583Z,14.56
2018-05-16T01:51:06.644Z,14.61
2018-05-16T01:52:06.704Z,14.54
2018-05-16T01:53:06.766Z,14.53
2018-05-16T01:54:06.826Z,14.46
2018-05-16T01:55:06.887Z,14.54
2018-05-16T01:56:06.948Z,14.52
2018-05-16T01:57:07.008Z,14.52
2018-05-16T01:58:07.070Z,14.41
2018-05-16T01:59:07.130Z,14.41
2018-05-16T02:00:07.190Z,14.41
2018-05-16T02:01:07.251Z,14.48
2018-05-16T02:02:07.311Z,14.42
2018-05-16T02:03:07.373Z,14.53
2018-05-16T02:04:07.437Z,14.45
2018-05-16T02:05:07.493Z,14.59
2018-05-16T02:06:07.554Z,14.46
2018-05-16T02:07:07.615Z,14.54
2018-05-16T02:08:07.673Z,14.57
2018-05-16T02:09:07.735Z,14.59
2018-05-16T02:10:07.795Z,14.46
2018-05-16T02:11:07.856Z,14.48
2018-05-16T02:12:07.917Z,14.49
2018-05-16T02:13:07.978Z,14.49
2018-05-16T02:14:08.038Z,14.45
2018-05-16T02:15:08.099Z,14.49
2018-05-16T02:16:08.159Z,14.48
2018-05-16T02:17:08.224Z,14.41
2018-05-16T02:18:08.280Z,14.41
2018-05-16T02:19:08.341Z,14.42
2018-05-16T02:20:08.401Z,14.46
2018-05-16T02:21:08.461Z,14.38
2018-05-16T02:22:08.522Z,14.38
2018-05-16T02:23:08.584Z,14.35
2018-05-16T02:24:08.643Z,14.42
2018-05-16T02:25:08.704Z,14.31
2018-05-16T02:26:08.765Z,14.41
2018-05-16T02:27:08.824Z,14.36
2018-05-16T02:28:08.885Z,14.34
2018-05-16T02:29:08.945Z,14.31
2018-05-16T02:30:09.007Z,14.27
2018-05-16T02:31:09.066Z,14.34
2018-05-16T02:32:09.130Z,14.26
2018-05-16T02:33:09.192Z,14.21
2018-05-16T02:34:09.249Z,14.31
2018-05-16T02:35:09.309Z,14.26
2018-05-16T02:36:09.369Z,14.29
2018-05-16T02:37:09.440Z,14.26
2018-05-16T02:38:09.494Z,14.20
2018-05-16T02:39:09.553Z,14.24
2018-05-16T02:40:09.611Z,14.17
2018-05-16T02:41:09.751Z,14.24
2018-05-16T02:42:09.733Z,14.21
2018-05-16T02:43:09.792Z,14.17
2018-05-16T02:44:09.854Z,14.17
2018-05-16T02:45:09.914Z,14.21
2018-05-16T02:46:09.975Z,14.26
2018-05-16T02:47:10.036Z,14.29
2018-05-16T02:48:10.094Z,14.31
2018-05-16T02:49:10.155Z,14.27
2018-05-16T02:50:10.214Z,14.26
2018-05-16T02:51:10.277Z,14.19
2018-05-16T02:52:10.337Z,14.20
2018-05-16T02:53:10.396Z,14.21
2018-05-16T02:54:10.708Z,14.19
2018-05-16T02:55:10.518Z,14.20
2018-05-16T02:56:10.578Z,14.26
2018-05-16T02:57:10.637Z,14.29
2018-05-16T02:58:10.707Z,14.24
2018-05-16T02:59:10.760Z,14.19
2018-05-16T03:00:10.819Z,14.21
2018-05-16T03:01:10.880Z,14.19
2018-05-16T03:02:10.940Z,14.20
2018-05-16T03:03:10.999Z,14.20
2018-05-16T03:04:11.066Z,14.12
2018-05-16T03:05:11.123Z,14.17
2018-05-16T03:06:11.182Z,14.06
2018-05-16T03:07:11.240Z,14.08
2018-05-16T03:08:11.303Z,14.11
2018-05-16T03:09:11.367Z,14.08
2018-05-16T03:10:11.421Z,14.06
2018-05-16T03:11:11.484Z,14.11
2018-05-16T03:12:11.543Z,14.01
2018-05-16T03:13:11.602Z,13.87
2018-05-16T03:14:11.663Z,13.83
2018-05-16T03:15:11.727Z,13.73
2018-05-16T03:16:11.784Z,13.83
2018-05-16T03:17:11.843Z,13.80
2018-05-16T03:18:11.903Z,13.81
2018-05-16T03:19:11.964Z,13.81
2018-05-16T03:20:12.024Z,13.84
2018-05-16T03:21:12.085Z,13.71
2018-05-16T03:22:12.146Z,13.65
2018-05-16T03:23:12.205Z,13.75
2018-05-16T03:24:12.265Z,13.76
2018-05-16T03:25:12.324Z,13.68
2018-05-16T03:26:12.385Z,13.61
2018-05-16T03:27:12.477Z,13.59
2018-05-16T03:28:12.505Z,13.62
2018-05-16T03:29:12.565Z,13.54
2018-05-16T03:30:12.641Z,13.59
2018-05-16T03:31:12.686Z,13.50
2018-05-16T03:32:12.746Z,13.57
2018-05-16T03:33:12.806Z,13.55
2018-05-16T03:34:12.866Z,13.50
2018-05-16T03:35:12.927Z,13.59
2018-05-16T03:36:12.986Z,13.59
2018-05-16T03:37:13.047Z,13.61
2018-05-16T03:38:13.107Z,13.61
2018-05-16T03:39:13.169Z,13.63
2018-05-16T03:40:13.225Z,13.54
2018-05-16T03:41:13.289Z,13.69
2018-05-16T03:42:13.345Z,13.80
2018-05-16T03:43:13.407Z,13.72
2018-05-16T03:44:13.466Z,13.72
2018-05-16T03:45:13.526Z,13.72
2018-05-16T03:46:13.587Z,13.66
2018-05-16T03:47:13.647Z,13.87
2018-05-16T03:48:13.706Z,13.76
2018-05-16T03:49:13.766Z,13.80
2018-05-16T03:50:13.828Z,13.86
2018-05-16T03:51:13.887Z,13.68
2018-05-16T03:52:13.946Z,13.79
2018-05-16T03:53:14.023Z,13.69
2018-05-16T03:54:14.452Z,13.66
2018-05-16T03:55:14.127Z,13.72
2018-05-16T03:56:14.185Z,13.65
2018-05-16T03:57:14.247Z,13.75
2018-05-16T03:58:14.336Z,13.75
2018-05-16T03:59:14.368Z,13.71
2018-05-16T04:00:14.464Z,13.72
2018-05-16T04:01:14.525Z,13.81
2018-05-16T04:02:14.815Z,13.86
2018-05-16T04:03:14.651Z,13.81
2018-05-16T04:04:14.697Z,13.84
2018-05-16T04:05:14.757Z,13.87
2018-05-16T04:06:14.821Z,13.86
2018-05-16T04:07:14.931Z,13.90
2018-05-16T04:08:14.940Z,13.90
2018-05-16T04:09:14.983Z,13.87
2018-05-16T04:10:15.060Z,13.90
2018-05-16T04:11:15.121Z,13.81
2018-05-16T04:12:15.188Z,13.86
2018-05-16T04:13:15.290Z,13.76
2018-05-16T04:14:15.301Z,13.75
2018-05-16T04:15:15.330Z,13.81
2018-05-16T04:16:15.390Z,13.69
2018-05-16T04:17:15.449Z,13.76
2018-05-16T04:18:15.510Z,13.66
2018-05-16T04:19:15.571Z,13.72
2018-05-16T04:20:15.630Z,13.71
2018-05-16T04:21:15.690Z,13.65
2018-05-16T04:22:15.751Z,13.71
2018-05-16T04:23:15.844Z,13.71
2018-05-16T04:24:15.953Z,13.66
2018-05-16T04:25:15.962Z,13.68
2018-05-16T04:26:16.025Z,13.69
2018-05-16T04:27:16.085Z,13.66
2018-05-16T04:28:16.141Z,13.80
2018-05-16T04:29:16.182Z,13.79
2018-05-16T04:30:16.235Z,13.71
2018-05-16T04:31:16.297Z,13.68
2018-05-16T04:32:16.352Z,13.79
2018-05-16T04:33:16.412Z,13.84
2018-05-16T04:34:16.473Z,13.68
2018-05-16T04:35:16.533Z,13.63
2018-05-16T04:36:16.593Z,13.71
2018-05-16T04:37:16.652Z,13.69
2018-05-16T04:38:16.713Z,13.65
2018-05-16T04:39:16.775Z,13.65
2018-05-16T04:40:16.832Z,13.61
2018-05-16T04:41:16.895Z,13.72
2018-05-16T04:42:16.970Z,13.66
2018-05-16T04:43:17.015Z,13.65
2018-05-16T04:44:17.073Z,13.75
2018-05-16T04:45:17.133Z,13.83
2018-05-16T04:46:17.193Z,13.72
2018-05-16T04:47:17.253Z,13.69
2018-05-16T04:48:17.312Z,13.75
2018-05-16T04:49:17.372Z,13.79
2018-05-16T04:50:17.434Z,13.80
2018-05-16T04:51:17.501Z,13.80
2018-05-16T04:52:17.554Z,13.93
2018-05-16T04:53:17.614Z,13.91
2018-05-16T04:54:17.675Z,13.91
2018-05-16T04:55:17.735Z,13.87
2018-05-16T04:56:17.794Z,13.96
2018-05-16T04:57:17.857Z,14.02
2018-05-16T04:58:17.914Z,13.88
2018-05-16T04:59:17.976Z,13.99
2018-05-16T05:00:18.036Z,14.01
2018-05-16T05:01:18.096Z,14.04
2018-05-16T05:02:18.156Z,14.04
2018-05-16T05:03:18.216Z,14.11
2018-05-16T05:04:18.276Z,14.11
2018-05-16T05:05:18.342Z,14.11
2018-05-16T05:06:18.402Z,14.16
2018-05-16T05:07:18.458Z,14.21
2018-05-16T05:08:18.517Z,14.13
2018-05-16T05:09:18.585Z,14.24
2018-05-16T05:10:18.640Z,14.38
2018-05-16T05:11:18.703Z,14.20
2018-05-16T05:12:18.785Z,14.23
2018-05-16T05:13:18.898Z,14.26
2018-05-16T05:14:18.882Z,14.30
2018-05-16T05:15:18.974Z,14.17
2018-05-16T05:16:19.087Z,14.02
2018-05-16T05:17:19.100Z,14.01
2018-05-16T05:18:19.179Z,14.05
2018-05-16T05:19:19.228Z,14.05
2018-05-16T05:20:19.251Z,14.16
2018-05-16T05:21:19.924Z,14.11
2018-05-16T05:22:19.845Z,14.04
2018-05-16T05:23:19.427Z,14.11
2018-05-16T05:24:19.487Z,14.11
2018-05-16T05:25:19.562Z,14.06
2018-05-16T05:26:19.608Z,14.13
2018-05-16T05:27:19.670Z,14.12
2018-05-16T05:28:19.825Z,14.21
2018-05-16T05:29:19.801Z,14.21
2018-05-16T05:30:19.949Z,14.21
2018-05-16T05:31:19.981Z,14.35
2018-05-16T05:32:19.971Z,14.31
2018-05-16T05:33:20.032Z,14.36
2018-05-16T05:34:20.092Z,14.35
2018-05-16T05:35:20.154Z,14.36
2018-05-16T05:36:20.221Z,14.46
2018-05-16T05:37:20.274Z,14.53
2018-05-16T05:38:20.335Z,14.53
2018-05-16T05:39:20.396Z,14.57
2018-05-16T05:40:20.457Z,14.64
2018-05-16T05:41:20.516Z,14.59
2018-05-16T05:42:20.578Z,14.60
2018-05-16T05:43:20.669Z,14.61
2018-05-16T05:44:20.698Z,14.54
2018-05-16T05:45:20.758Z,14.63
2018-05-16T05:46:20.819Z,14.57
2018-05-16T05:47:20.880Z,14.69
2018-05-16T05:48:20.940Z,14.69
2018-05-16T05:49:21.001Z,14.79
2018-05-16T05:50:21.062Z,14.74
2018-05-16T05:51:21.122Z,14.78
2018-05-16T05:52:21.183Z,14.87
2018-05-16T05:53:21.245Z,15.00
2018-05-16T05:54:21.304Z,15.01
2018-05-16T05:55:21.367Z,15.11
2018-05-16T05:56:21.425Z,15.04
2018-05-16T05:57:21.488Z,14.98
2018-05-16T05:58:21.549Z,15.01
2018-05-16T05:59:21.609Z,15.04
2018-05-16T06:00:21.671Z,14.97
2018-05-16T06:01:21.730Z,14.93
2018-05-16T06:02:21.791Z,15.09
2018-05-16T06:03:21.853Z,15.05
2018-05-16T06:04:21.913Z,15.13
2018-05-16T06:05:22.060Z,15.11
2018-05-16T06:06:22.035Z,15.16
2018-05-16T06:07:22.097Z,15.09
2018-05-16T06:08:22.158Z,15.13
2018-05-16T06:09:22.227Z,15.22
2018-05-16T06:10:22.280Z,15.13
2018-05-16T06:11:22.373Z,15.20
2018-05-16T06:12:22.405Z,15.23
2018-05-16T06:13:22.465Z,15.15
2018-05-16T06:14:22.557Z,15.33
2018-05-16T06:15:22.586Z,15.23
2018-05-16T06:16:22.647Z,15.25
2018-05-16T06:17:22.722Z,15.43
2018-05-16T06:18:22.772Z,15.49
2018-05-16T06:19:22.880Z,15.48
2018-05-16T06:20:22.921Z,15.48
2018-05-16T06:21:22.952Z,15.46
2018-05-16T06:22:23.014Z,15.34
2018-05-16T06:23:23.100Z,15.49
2018-05-16T06:24:23.139Z,15.48
2018-05-16T06:25:23.198Z,15.49
2018-05-16T06:26:23.305Z,15.59
2018-05-16T06:27:23.544Z,15.70
2018-05-16T06:28:23.382Z,15.70
2018-05-16T06:29:23.477Z,15.67
2018-05-16T06:30:23.602Z,15.68
2018-05-16T06:31:23.566Z,15.67
2018-05-16T06:32:23.626Z,15.81
2018-05-16T06:33:23.689Z,15.84
2018-05-16T06:34:23.750Z,15.93
2018-05-16T06:35:23.811Z,15.95
2018-05-16T06:36:23.872Z,15.98
2018-05-16T06:37:23.933Z,15.96
2018-05-16T06:38:23.996Z,15.89
2018-05-16T06:39:24.058Z,15.86
2018-05-16T06:40:24.118Z,15.98
2018-05-16T06:41:24.183Z,15.93
2018-05-16T06:42:24.241Z,15.91
2018-05-16T06:43:24.303Z,15.91
2018-05-16T06:44:24.418Z,15.98
2018-05-16T06:45:24.425Z,15.92
2018-05-16T06:46:24.487Z,15.96
2018-05-16T06:47:24.550Z,16.07
2018-05-16T06:48:24.608Z,16.07
2018-05-16T06:49:24.671Z,16.04
2018-05-16T06:50:24.733Z,16.08
2018-05-16T06:51:24.794Z,16.06
2018-05-16T06:52:24.856Z,16.04
2018-05-16T06:53:24.919Z,16.06
2018-05-16T06:54:24.978Z,16.22
2018-05-16T06:55:25.041Z,16.25
2018-05-16T06:56:25.135Z,16.37
2018-05-16T06:57:25.166Z,16.32
2018-05-16T06:58:25.225Z,16.50
2018-05-16T06:59:25.298Z,16.40
2018-05-16T07:00:25.347Z,16.47
2018-05-16T07:01:25.409Z,16.48
2018-05-16T07:02:25.472Z,16.60
2018-05-16T07:03:25.532Z,16.65
2018-05-16T07:04:25.593Z,16.70
2018-05-16T07:05:25.656Z,16.72
2018-05-16T07:06:25.717Z,16.73
2018-05-16T07:07:25.780Z,16.81
2018-05-16T07:08:25.840Z,16.85
2018-05-16T07:09:25.923Z,16.82
2018-05-16T07:10:25.984Z,16.66
2018-05-16T07:11:26.027Z,16.77
2018-05-16T07:12:26.112Z,16.87
2018-05-16T07:13:26.164Z,16.84
2018-05-16T07:14:26.214Z,16.91
2018-05-16T07:15:26.277Z,16.85
2018-05-16T07:16:26.368Z,16.67
2018-05-16T07:17:26.430Z,16.75
2018-05-16T07:18:26.476Z,16.78
2018-05-16T07:19:26.522Z,16.82
2018-05-16T07:20:27.210Z,16.88
2018-05-16T07:21:26.645Z,16.90
2018-05-16T07:22:27.113Z,16.99
2018-05-16T07:23:27.233Z,16.85
2018-05-16T07:24:26.831Z,16.91
2018-05-16T07:25:27.402Z,16.90
2018-05-16T07:26:26.976Z,17.03
2018-05-16T07:27:27.018Z,17.10
2018-05-16T07:28:27.097Z,17.17
2018-05-16T07:29:27.195Z,17.03
2018-05-16T07:30:27.223Z,17.00
2018-05-16T07:31:27.267Z,17.06
2018-05-16T07:32:27.336Z,16.96
2018-05-16T07:33:27.389Z,17.02
2018-05-16T07:34:27.452Z,16.99
2018-05-16T07:35:27.515Z,16.99
2018-05-16T07:36:27.576Z,16.88
2018-05-16T07:37:27.639Z,16.78
2018-05-16T07:38:27.703Z,16.78
2018-05-16T07:39:27.763Z,16.95
2018-05-16T07:40:27.825Z,16.95
2018-05-16T07:41:27.886Z,17.06
2018-05-16T07:42:27.950Z,17.03
2018-05-16T07:43:28.020Z,17.06
2018-05-16T07:44:28.075Z,17.05
2018-05-16T07:45:28.135Z,17.12
2018-05-16T07:46:28.198Z,17.17
2018-05-16T07:47:28.261Z,17.27
2018-05-16T07:48:28.323Z,17.30
2018-05-16T07:49:28.383Z,17.22
2018-05-16T07:50:28.447Z,17.42
2018-05-16T07:51:28.510Z,17.39
2018-05-16T07:52:28.571Z,17.49
2018-05-16T07:53:28.633Z,17.39
2018-05-16T07:54:28.695Z,17.39
2018-05-16T07:55:28.760Z,17.40
2018-05-16T07:56:28.825Z,17.47
2018-05-16T07:57:28.883Z,17.42
2018-05-16T07:58:29.281Z,17.45
2018-05-16T07:59:29.347Z,17.57
2018-05-16T08:00:29.069Z,17.47
2018-05-16T08:01:29.145Z,17.43
2018-05-16T08:02:29.196Z,17.38
2018-05-16T08:03:29.259Z,17.39
2018-05-16T08:04:29.319Z,17.43
2018-05-16T08:05:29.384Z,17.47
2018-05-16T08:06:29.454Z,17.49
2018-05-16T08:07:29.511Z,17.58
2018-05-16T08:08:29.570Z,17.57
2018-05-16T08:09:29.632Z,17.51
2018-05-16T08:10:29.695Z,17.57
2018-05-16T08:11:29.758Z,17.58
2018-05-16T08:12:29.823Z,17.54
2018-05-16T08:13:29.884Z,17.62
2018-05-16T08:14:29.949Z,17.55
2018-05-16T08:15:30.010Z,17.54
2018-05-16T08:16:30.071Z,17.63
2018-05-16T08:17:30.142Z,17.70
2018-05-16T08:18:30.195Z,17.63
2018-05-16T08:19:30.258Z,17.80
2018-05-16T08:20:30.319Z,17.92
2018-05-16T08:21:30.389Z,17.99
2018-05-16T08:22:30.446Z,18.02
2018-05-16T08:23:30.508Z,18.07
2018-05-16T08:24:30.572Z,18.01
2018-05-16T08:25:30.633Z,18.13
2018-05-16T08:26:30.696Z,18.13
2018-05-16T08:27:30.758Z,18.11
2018-05-16T08:28:30.820Z,17.92
2018-05-16T08:29:30.889Z,17.87
2018-05-16T08:30:30.947Z,17.95
2018-05-16T08:31:31.016Z,17.94
2018-05-16T08:32:31.071Z,18.16
2018-05-16T08:33:31.135Z,18.11
2018-05-16T08:34:31.197Z,18.13
2018-05-16T08:35:31.261Z,18.09
2018-05-16T08:36:31.321Z,18.19
2018-05-16T08:37:37.652Z,18.11
2018-05-16T08:38:31.448Z,18.02
2018-05-16T08:39:31.511Z,17.94
2018-05-16T08:40:31.572Z,18.05
2018-05-16T08:41:31.637Z,18.11
2018-05-16T08:42:31.699Z,18.28
2018-05-16T08:43:31.763Z,18.38
2018-05-16T08:44:31.827Z,18.56
2018-05-16T08:45:31.888Z,18.54
2018-05-16T08:46:32.004Z,18.56
2018-05-16T08:47:32.020Z,18.72
2018-05-16T08:48:32.078Z,18.74
2018-05-16T08:49:32.140Z,18.71
2018-05-16T08:50:32.204Z,18.57
2018-05-16T08:51:32.267Z,18.68
2018-05-16T08:52:32.377Z,18.78
2018-05-16T08:53:32.443Z,18.82
2018-05-16T08:54:32.494Z,18.60
2018-05-16T08:55:32.868Z,18.56
2018-05-16T08:56:32.584Z,18.56
2018-05-16T08:57:32.648Z,18.57
2018-05-16T08:58:32.716Z,18.59
2018-05-16T08:59:32.777Z,18.60
2018-05-16T09:00:32.840Z,18.56
2018-05-16T09:01:32.902Z,18.62
2018-05-16T09:02:32.965Z,18.64
2018-05-16T09:03:33.030Z,18.72
2018-05-16T09:04:33.093Z,18.79
2018-05-16T09:05:33.157Z,18.82
2018-05-16T09:06:33.220Z,18.90
2018-05-16T09:07:33.293Z,18.89
2018-05-16T09:08:33.348Z,18.96
2018-05-16T09:09:33.411Z,19.13
2018-05-16T09:10:33.475Z,19.16
2018-05-16T09:11:33.538Z,19.27
2018-05-16T09:12:33.602Z,19.38
2018-05-16T09:13:33.670Z,19.55
2018-05-16T09:14:33.732Z,19.50
2018-05-16T09:15:33.793Z,19.65
2018-05-16T09:16:34.299Z,19.71
2018-05-16T09:17:33.923Z,19.71
2018-05-16T09:18:33.987Z,19.75
2018-05-16T09:19:34.051Z,19.65
2018-05-16T09:20:34.115Z,19.70
2018-05-16T09:21:34.180Z,20.04
2018-05-16T09:22:34.246Z,20.22
2018-05-16T09:23:34.326Z,20.27
2018-05-16T09:24:34.375Z,20.26
2018-05-16T09:25:34.441Z,20.25
2018-05-16T09:26:34.505Z,20.23
2018-05-16T09:27:34.572Z,20.26
2018-05-16T09:28:34.637Z,20.19
2018-05-16T09:29:34.702Z,20.17
2018-05-16T09:30:34.769Z,20.26
2018-05-16T09:31:34.836Z,20.33
2018-05-16T09:32:34.908Z,20.34
2018-05-16T09:33:34.964Z,20.31
2018-05-16T09:34:35.030Z,19.98
2018-05-16T09:35:35.096Z,20.08
2018-05-16T09:36:35.196Z,19.89
2018-05-16T09:37:35.228Z,20.00
2018-05-16T09:38:35.293Z,20.05
2018-05-16T09:39:35.360Z,20.05
2018-05-16T09:40:35.424Z,20.04
2018-05-16T09:41:35.490Z,20.01
2018-05-16T09:42:35.706Z,19.78
2018-05-16T09:43:35.685Z,19.82
2018-05-16T09:44:35.687Z,19.87
2018-05-16T09:45:35.797Z,20.04
2018-05-16T09:46:35.817Z,20.01
2018-05-16T09:47:35.885Z,19.79
2018-05-16T09:48:35.949Z,19.42
2018-05-16T09:49:36.015Z,19.58
2018-05-16T09:50:36.079Z,19.78
2018-05-16T09:51:36.387Z,19.86
2018-05-16T09:52:36.211Z,20.13
2018-05-16T09:53:36.276Z,20.16
2018-05-16T09:54:36.342Z,20.23
2018-05-16T09:55:37.009Z,20.33
2018-05-16T09:56:36.475Z,20.25
2018-05-16T09:57:36.540Z,20.22
2018-05-16T09:58:36.605Z,20.38
2018-05-16T09:59:36.674Z,20.42
2018-05-16T10:00:36.736Z,20.51
2018-05-16T10:01:37.370Z,20.58
2018-05-16T10:02:37.526Z,20.76
2018-05-16T10:03:36.960Z,20.50
2018-05-16T10:04:37.001Z,20.60
2018-05-16T10:05:37.067Z,20.79
2018-05-16T10:06:37.133Z,21.06
2018-05-16T10:07:37.199Z,21.09
2018-05-16T10:08:37.264Z,21.18
2018-05-16T10:09:37.381Z,21.38
2018-05-16T10:10:37.400Z,21.19
2018-05-16T10:11:37.468Z,21.28
2018-05-16T10:12:37.532Z,21.28
2018-05-16T10:13:37.600Z,21.49
2018-05-16T10:14:37.669Z,21.42
2018-05-16T10:15:37.736Z,21.58
2018-05-16T10:16:37.802Z,21.13
2018-05-16T10:17:37.874Z,20.34
2018-05-16T10:18:37.938Z,20.31
2018-05-16T10:19:38.008Z,20.31
2018-05-16T10:20:38.072Z,20.31
2018-05-16T10:21:38.140Z,20.42
2018-05-16T10:22:38.208Z,20.73
2018-05-16T10:23:38.364Z,21.00
2018-05-16T10:24:38.341Z,21.75
2018-05-16T10:25:38.410Z,21.93
2018-05-16T10:26:39.297Z,21.96
2018-05-16T10:27:38.545Z,22.14
2018-05-16T10:28:38.614Z,21.26
2018-05-16T10:29:38.681Z,20.94
2018-05-16T10:30:38.749Z,20.72
2018-05-16T10:31:38.818Z,20.75
2018-05-16T10:32:38.885Z,21.38
2018-05-16T10:33:38.953Z,22.04
2018-05-16T10:34:39.041Z,21.90
2018-05-16T10:35:39.092Z,21.85
2018-05-16T10:36:39.156Z,21.83
2018-05-16T10:37:39.229Z,22.01
2018-05-16T10:38:39.295Z,22.19
2018-05-16T10:39:39.366Z,22.29
2018-05-16T10:40:39.437Z,22.75
2018-05-16T10:41:39.500Z,23.03
2018-05-16T10:42:39.569Z,22.54
2018-05-16T10:43:39.640Z,22.46
2018-05-16T10:44:39.722Z,22.05
2018-05-16T10:45:39.776Z,22.23
2018-05-16T10:46:39.845Z,23.32
2018-05-16T10:47:39.916Z,24.23
2018-05-16T10:48:39.983Z,24.08
2018-05-16T10:49:40.054Z,23.92
2018-05-16T10:50:40.125Z,24.00
2018-05-16T10:51:40.862Z,24.42
2018-05-16T10:52:40.263Z,24.86
2018-05-16T10:53:40.342Z,24.48
2018-05-16T10:54:40.409Z,24.44
2018-05-16T10:55:40.479Z,24.86
2018-05-16T10:56:40.549Z,24.63
2018-05-16T10:57:40.621Z,24.48
2018-05-16T10:58:40.695Z,23.77
2018-05-16T10:59:40.765Z,23.39
2018-05-16T11:00:40.839Z,23.87
2018-05-16T11:01:40.911Z,23.14
2018-05-16T11:02:40.981Z,22.02
2018-05-16T11:03:41.054Z,22.05
2018-05-16T11:04:41.126Z,22.52
2018-05-16T11:05:41.198Z,22.11
2018-05-16T11:06:41.270Z,21.79
2018-05-16T11:07:41.342Z,22.02
2018-05-16T11:08:41.418Z,21.74
2018-05-16T11:09:41.487Z,21.64
2018-05-16T11:10:41.559Z,21.53
2018-05-16T11:11:41.628Z,21.45
2018-05-16T11:12:41.695Z,21.38
2018-05-16T11:13:41.765Z,21.66
2018-05-16T11:14:41.836Z,22.46
2018-05-16T11:15:41.906Z,23.31
2018-05-16T11:16:41.974Z,23.90
2018-05-16T11:17:42.742Z,24.45
2018-05-16T11:18:42.119Z,24.45
2018-05-16T11:19:42.184Z,24.51
2018-05-16T11:20:42.254Z,24.60
2018-05-16T11:21:42.327Z,24.92
2018-05-16T11:22:42.395Z,25.42
2018-05-16T11:23:43.008Z,25.54
2018-05-16T11:24:42.537Z,25.64
2018-05-16T11:25:42.610Z,25.38
2018-05-16T11:26:42.686Z,24.51
2018-05-16T11:27:42.770Z,25.35
2018-05-16T11:28:42.824Z,25.69
2018-05-16T11:29:42.908Z,24.71
2018-05-16T11:30:42.969Z,25.69
2018-05-16T11:31:43.041Z,25.63
2018-05-16T11:32:43.687Z,25.26
2018-05-16T11:33:43.191Z,24.79
2018-05-16T11:34:43.262Z,24.11
2018-05-16T11:35:43.339Z,24.44
2018-05-16T11:36:43.498Z,24.48
2018-05-16T11:37:43.482Z,24.79
2018-05-16T11:38:43.554Z,24.34
2018-05-16T11:39:44.289Z,24.24
2018-05-16T11:40:43.701Z,24.15
2018-05-16T11:41:44.414Z,24.27
2018-05-16T11:42:43.848Z,24.99
2018-05-16T11:43:43.922Z,24.92
2018-05-16T11:44:44.679Z,24.94
2018-05-16T11:45:44.069Z,23.97
2018-05-16T11:46:44.144Z,23.39
2018-05-16T11:47:44.220Z,23.49
2018-05-16T11:48:44.310Z,23.79
2018-05-16T11:49:44.365Z,24.41
2018-05-16T11:50:44.439Z,24.99
2018-05-16T11:51:44.514Z,25.07
2018-05-16T11:52:44.583Z,25.61
2018-05-16T11:53:44.667Z,25.19
2018-05-16T11:54:44.732Z,24.93
2018-05-16T11:55:44.806Z,24.45
2018-05-16T11:56:44.877Z,24.80
2018-05-16T11:57:44.950Z,24.75
2018-05-16T11:58:45.026Z,24.92
2018-05-16T11:59:45.102Z,24.82
2018-05-16T12:00:45.172Z,24.67
2018-05-16T12:01:45.250Z,24.90
2018-05-16T12:02:45.398Z,25.05
2018-05-16T12:03:45.392Z,25.48
2018-05-16T12:04:45.467Z,24.86
2018-05-16T12:05:45.536Z,25.14
2018-05-16T12:06:45.609Z,25.39
2018-05-16T12:07:45.680Z,25.46
2018-05-16T12:08:45.757Z,25.61
2018-05-16T12:09:45.827Z,25.12
2018-05-16T12:10:45.899Z,24.27
2018-05-16T12:11:45.971Z,24.23
2018-05-16T12:12:46.044Z,24.16
2018-05-16T12:13:46.118Z,23.92
2018-05-16T12:14:46.247Z,24.06
2018-05-16T12:15:46.262Z,23.75
2018-05-16T12:16:46.334Z,24.39
2018-05-16T12:17:46.407Z,24.77
2018-05-16T12:18:46.478Z,24.42
2018-05-16T12:19:46.551Z,24.19
2018-05-16T12:20:46.702Z,24.87
2018-05-16T12:21:46.716Z,24.49
2018-05-16T12:22:46.769Z,25.20
2018-05-16T12:23:46.847Z,25.38
2018-05-16T12:24:46.911Z,25.01
2018-05-16T12:25:47.000Z,25.19
2018-05-16T12:26:47.055Z,25.27
2018-05-16T12:27:47.127Z,24.59
2018-05-16T12:28:47.209Z,24.64
2018-05-16T12:29:47.286Z,24.55
2018-05-16T12:30:47.345Z,24.80
2018-05-16T12:31:47.417Z,24.68
2018-05-16T12:32:47.487Z,24.00
2018-05-16T12:33:47.563Z,23.84
2018-05-16T12:34:47.632Z,24.29
2018-05-16T12:35:47.705Z,24.45
2018-05-16T12:36:47.775Z,25.23
2018-05-16T12:37:47.848Z,24.46
2018-05-16T12:38:47.921Z,24.31
2018-05-16T12:39:47.993Z,24.92
2018-05-16T12:40:48.065Z,24.61
2018-05-16T12:41:48.138Z,23.99
2018-05-16T12:42:48.211Z,23.99
2018-05-16T12:43:48.282Z,24.06
2018-05-16T12:44:48.355Z,24.16
2018-05-16T12:45:48.425Z,24.06
2018-05-16T12:46:48.499Z,24.49
2018-05-16T12:47:48.575Z,24.92
2018-05-16T12:48:48.645Z,24.86
2018-05-16T12:49:48.713Z,24.83
2018-05-16T12:50:49.314Z,24.82
2018-05-16T12:51:48.858Z,25.27
2018-05-16T12:52:48.937Z,25.59
2018-05-16T12:53:49.002Z,26.19